Port Kent, New York
Current Conditions -  °F | °C
As of 6:53 AM on Thursday 23 Oct 2014 (Local Time) from KPBG Reporting Station
Overcast Overcast  
Wind Chill: 35°   Ceiling: 5000
Heat Index: 44°   Visibility: 10mi
Dew Point: 36°   Wind: 22mph
Humidity: 73%   Direction: 350°N
Pressure: 30.03"   Gusts: 28mph
Location:  44.53°N, 73.41°W
Report Text: KPBG 231053Z AUTO 35019G24KT 10SM OVC050 07/02 A3003 RMK AO2 RAB17E48 SLP170 P0000 T00670022
Loading
Personal Weather Stations






























Interactive Weather Map
Tropical Storm Tracking
New forecast layout! Learn more

10-Day Weather Forecast

Advertisements
Track Severe Weather on mobile